createdAt,value
2019-05-21T00:00:55.618Z,52.92
2019-05-21T00:03:26.013Z,52.97
2019-05-21T00:05:56.336Z,53.02
2019-05-21T00:08:26.759Z,53.07
2019-05-21T00:10:57.084Z,53.14
2019-05-21T00:13:27.372Z,53.20
2019-05-21T00:15:57.649Z,53.25
2019-05-21T00:18:27.938Z,53.31
2019-05-21T00:21:00.552Z,53.39
2019-05-21T00:23:31.103Z,53.47
2019-05-21T00:26:01.462Z,53.52
2019-05-21T00:28:39.683Z,53.58
2019-05-21T00:31:45.954Z,53.67
2019-05-21T00:34:52.633Z,53.73
2019-05-21T00:37:59.492Z,53.81
2019-05-21T00:41:05.505Z,53.87
2019-05-21T00:43:46.384Z,53.96
2019-05-21T00:46:16.997Z,54.03
2019-05-21T00:48:47.872Z,54.11
2019-05-21T00:51:19.634Z,54.19
2019-05-21T00:53:49.905Z,54.25
2019-05-21T00:56:20.222Z,54.32
2019-05-21T00:58:51.270Z,54.36
2019-05-21T01:01:21.915Z,54.42
2019-05-21T01:03:52.253Z,54.48
2019-05-21T01:06:22.593Z,54.53
2019-05-21T01:08:56.156Z,54.59
2019-05-21T01:11:26.488Z,54.62
2019-05-21T01:13:58.388Z,54.67
2019-05-21T01:16:28.739Z,54.72
2019-05-21T01:18:59.993Z,54.77
2019-05-21T01:21:30.319Z,54.81
2019-05-21T01:24:02.095Z,54.83
2019-05-21T01:26:32.476Z,54.87
2019-05-21T01:29:05.586Z,54.93
2019-05-21T01:31:37.722Z,54.95
2019-05-21T01:34:11.311Z,55.00
2019-05-21T01:36:42.487Z,55.05
2019-05-21T01:39:13.019Z,55.09
2019-05-21T01:41:43.324Z,55.12
2019-05-21T01:44:13.648Z,55.17
2019-05-21T01:46:44.416Z,55.21
2019-05-21T01:49:14.783Z,55.26
2019-05-21T01:51:45.102Z,55.30
2019-05-21T01:54:15.401Z,55.33
2019-05-21T01:56:45.713Z,55.39
2019-05-21T01:59:16.087Z,55.44
2019-05-21T02:01:47.613Z,55.48
2019-05-21T02:04:19.672Z,55.52
2019-05-21T02:06:50.225Z,55.57
2019-05-21T02:09:20.569Z,55.64
2019-05-21T02:11:51.227Z,55.71
2019-05-21T02:14:21.965Z,55.76
2019-05-21T02:16:52.252Z,55.80
2019-05-21T02:19:23.137Z,55.86
2019-05-21T02:21:53.456Z,55.90
2019-05-21T02:24:24.239Z,55.95
2019-05-21T02:26:54.604Z,56.00
2019-05-21T02:29:27.220Z,56.07
2019-05-21T02:31:57.495Z,56.13
2019-05-21T02:34:28.276Z,56.16
2019-05-21T02:36:58.593Z,56.23
2019-05-21T02:39:29.273Z,56.28
2019-05-21T02:41:59.616Z,56.33
2019-05-21T02:44:29.888Z,56.38
2019-05-21T02:47:00.169Z,56.43
2019-05-21T02:49:31.468Z,56.50
2019-05-21T02:52:01.813Z,56.55
2019-05-21T02:54:40.720Z,56.62
2019-05-21T02:57:04.741Z,56.67
2019-05-21T02:59:36.349Z,56.74
2019-05-21T03:02:14.760Z,56.81
2019-05-21T03:04:46.660Z,56.85
2019-05-21T03:07:19.803Z,56.91
2019-05-21T03:09:50.454Z,56.97
2019-05-21T03:12:20.802Z,57.01
2019-05-21T03:14:52.008Z,57.10
2019-05-21T03:17:22.868Z,57.16
2019-05-21T03:19:53.220Z,57.23
2019-05-21T03:22:23.545Z,57.27
2019-05-21T03:24:54.164Z,57.33
2019-05-21T03:27:24.918Z,57.39
2019-05-21T03:29:55.215Z,57.45
2019-05-21T03:32:25.579Z,57.52
2019-05-21T03:34:56.238Z,57.58
2019-05-21T03:37:26.945Z,57.67
2019-05-21T03:39:58.963Z,57.73
2019-05-21T03:42:31.765Z,57.81
2019-05-21T03:45:02.094Z,57.84
2019-05-21T03:47:35.126Z,57.92
2019-05-21T03:50:05.964Z,57.97
2019-05-21T03:52:36.251Z,58.06
2019-05-21T03:55:06.835Z,58.12
2019-05-21T03:57:37.564Z,58.19
2019-05-21T04:00:09.486Z,58.26
2019-05-21T04:02:42.939Z,58.31
2019-05-21T04:05:20.085Z,58.38
2019-05-21T04:07:50.380Z,58.47
2019-05-21T04:10:21.165Z,58.54
2019-05-21T04:13:08.897Z,58.58
2019-05-21T04:16:04.677Z,58.65
2019-05-21T04:18:46.103Z,58.75
2019-05-21T04:21:16.406Z,58.82
2019-05-21T04:23:47.117Z,58.87
2019-05-21T04:26:17.425Z,58.94
2019-05-21T04:28:48.349Z,59.00
2019-05-21T04:31:18.655Z,59.08
2019-05-21T04:33:48.953Z,59.13
2019-05-21T04:36:19.260Z,59.22
2019-05-21T04:38:49.626Z,59.31
2019-05-21T04:41:21.557Z,59.37
2019-05-21T04:44:01.257Z,59.45
2019-05-21T04:46:31.581Z,59.54
2019-05-21T04:49:01.985Z,59.60
2019-05-21T04:51:32.300Z,59.65
2019-05-21T04:54:03.294Z,59.71
2019-05-21T04:56:34.565Z,59.76
2019-05-21T04:59:04.889Z,59.78
2019-05-21T05:01:38.000Z,59.84
2019-05-21T05:04:09.840Z,59.84
2019-05-21T05:06:40.170Z,59.89
2019-05-21T05:09:11.368Z,59.94
2019-05-21T05:11:42.488Z,59.98
2019-05-21T05:14:12.816Z,60.01
2019-05-21T05:16:44.753Z,60.04
2019-05-21T05:19:15.261Z,60.09
2019-05-21T05:21:52.523Z,60.15
2019-05-21T05:24:22.895Z,60.18
2019-05-21T05:26:53.175Z,60.24
2019-05-21T05:29:24.602Z,60.28
2019-05-21T05:31:56.304Z,60.32
2019-05-21T05:34:26.992Z,60.40
2019-05-21T05:36:57.306Z,60.44
2019-05-21T05:39:29.684Z,60.48
2019-05-21T05:42:01.436Z,60.53
2019-05-21T05:44:33.809Z,60.54
2019-05-21T05:47:04.140Z,60.60
2019-05-21T05:49:40.537Z,60.65
2019-05-21T05:52:10.871Z,60.69
2019-05-21T05:54:42.946Z,60.71
2019-05-21T05:57:19.211Z,60.75
2019-05-21T05:59:49.535Z,60.84
2019-05-21T06:02:19.844Z,60.92
2019-05-21T06:04:50.169Z,60.96
2019-05-21T06:07:21.438Z,60.97
2019-05-21T06:09:52.635Z,61.12
2019-05-21T06:12:25.147Z,61.18
2019-05-21T06:14:55.428Z,61.19
2019-05-21T06:17:26.066Z,61.22
2019-05-21T06:19:56.657Z,61.18
2019-05-21T06:22:27.676Z,61.27
2019-05-21T06:24:58.039Z,61.40
2019-05-21T06:27:29.965Z,61.48
2019-05-21T06:30:00.300Z,61.57
2019-05-21T06:32:30.954Z,61.64
2019-05-21T06:35:11.859Z,61.67
2019-05-21T06:37:42.180Z,61.72
2019-05-21T06:40:13.385Z,61.79
2019-05-21T06:42:43.763Z,61.86
2019-05-21T06:45:14.774Z,61.81
2019-05-21T06:47:45.449Z,61.82
2019-05-21T06:50:15.883Z,61.94
2019-05-21T06:52:46.513Z,61.95
2019-05-21T06:55:18.527Z,61.93
2019-05-21T06:57:49.537Z,61.87
2019-05-21T07:00:21.410Z,61.88
2019-05-21T07:02:52.083Z,61.88
2019-05-21T07:05:22.715Z,62.08
2019-05-21T07:07:53.071Z,61.94
2019-05-21T07:10:33.884Z,61.83
2019-05-21T07:13:04.184Z,61.85
2019-05-21T07:15:34.473Z,61.77
2019-05-21T07:18:04.903Z,61.75
2019-05-21T07:20:37.748Z,61.81
2019-05-21T07:23:09.120Z,61.65
2019-05-21T07:25:39.412Z,61.64
2019-05-21T07:28:11.374Z,61.48
2019-05-21T07:30:41.685Z,61.44
2019-05-21T07:33:14.471Z,61.44
2019-05-21T07:35:44.857Z,61.37
2019-05-21T07:38:17.314Z,61.27
2019-05-21T07:40:48.322Z,61.24
2019-05-21T07:43:18.649Z,60.89
2019-05-21T07:45:48.871Z,60.89
2019-05-21T07:48:22.719Z,60.90
2019-05-21T07:50:55.610Z,60.90
2019-05-21T07:53:26.308Z,60.87
2019-05-21T07:55:56.674Z,60.63
2019-05-21T07:58:29.731Z,60.60
2019-05-21T08:01:01.566Z,60.58
2019-05-21T08:03:32.209Z,60.44
2019-05-21T08:06:02.872Z,60.42
2019-05-21T08:08:33.438Z,60.15
2019-05-21T08:11:05.084Z,60.10
2019-05-21T08:13:36.934Z,59.94
2019-05-21T08:16:07.260Z,59.75
2019-05-21T08:18:37.901Z,59.62
2019-05-21T08:21:11.288Z,59.55
2019-05-21T08:23:43.249Z,59.43
2019-05-21T08:26:13.689Z,59.52
2019-05-21T08:28:44.539Z,59.32
2019-05-21T08:31:14.911Z,59.06
2019-05-21T08:33:47.619Z,59.09
2019-05-21T08:36:17.926Z,58.96
2019-05-21T08:38:48.267Z,58.95
2019-05-21T08:41:18.595Z,58.64
2019-05-21T08:44:09.965Z,58.52
2019-05-21T08:46:42.044Z,58.39
2019-05-21T08:49:16.797Z,58.39
2019-05-21T08:51:47.183Z,58.12
2019-05-21T08:54:38.475Z,57.95
2019-05-21T08:57:08.874Z,57.89
2019-05-21T08:59:39.464Z,57.64
2019-05-21T09:02:12.415Z,57.54
2019-05-21T09:04:46.157Z,57.43
2019-05-21T09:07:15.406Z,57.24
2019-05-21T09:09:50.426Z,57.22
2019-05-21T09:12:18.107Z,56.96
2019-05-21T09:14:48.362Z,56.78
2019-05-21T09:17:19.835Z,56.50
2019-05-21T09:19:50.242Z,56.53
2019-05-21T09:22:20.630Z,56.27
2019-05-21T09:24:50.994Z,56.24
2019-05-21T09:27:22.798Z,55.95
2019-05-21T09:29:55.923Z,55.98
2019-05-21T09:32:32.503Z,55.80
2019-05-21T09:35:05.155Z,55.51
2019-05-21T09:37:37.529Z,55.44
2019-05-21T09:40:08.523Z,55.26
2019-05-21T09:42:39.439Z,55.06
2019-05-21T09:45:10.456Z,54.90
2019-05-21T09:47:41.563Z,54.73
2019-05-21T09:50:12.503Z,54.68
2019-05-21T09:52:48.384Z,54.49
2019-05-21T09:55:19.412Z,54.18
2019-05-21T09:58:15.831Z,54.15
2019-05-21T10:01:17.123Z,54.08
2019-05-21T10:03:56.187Z,53.92
2019-05-21T10:06:26.789Z,53.72
2019-05-21T10:08:57.251Z,53.58
2019-05-21T10:11:27.904Z,53.50
2019-05-21T10:13:58.589Z,53.41
2019-05-21T10:16:30.537Z,53.36
2019-05-21T10:19:00.851Z,53.09
2019-05-21T10:21:31.721Z,53.10
2019-05-21T10:24:02.681Z,52.44
2019-05-21T10:26:42.548Z,52.44
2019-05-21T10:29:15.165Z,52.55
2019-05-21T10:31:45.486Z,52.28
2019-05-21T10:34:15.843Z,52.24
2019-05-21T10:36:46.502Z,52.14
2019-05-21T10:39:16.879Z,51.99
2019-05-21T10:41:47.167Z,51.92
2019-05-21T10:44:17.878Z,51.83
2019-05-21T10:46:50.349Z,51.77
2019-05-21T10:49:23.347Z,51.70
2019-05-21T10:51:53.681Z,51.57
2019-05-21T10:54:24.414Z,51.36
2019-05-21T10:56:54.765Z,51.24
2019-05-21T10:59:26.955Z,51.07
2019-05-21T11:02:07.571Z,50.85
2019-05-21T11:04:42.482Z,50.77
2019-05-21T11:07:14.354Z,50.78
2019-05-21T11:09:46.516Z,50.61
2019-05-21T11:12:17.161Z,50.29
2019-05-21T11:14:47.882Z,50.11
2019-05-21T11:17:18.478Z,50.11
2019-05-21T11:19:48.927Z,50.12
2019-05-21T11:22:20.988Z,50.18
2019-05-21T11:24:52.842Z,49.93
2019-05-21T11:27:28.550Z,49.92
2019-05-21T11:29:59.722Z,49.61
2019-05-21T11:32:30.085Z,49.70
2019-05-21T11:35:00.434Z,49.52
2019-05-21T11:37:33.456Z,49.18
2019-05-21T11:40:08.487Z,49.19
2019-05-21T11:42:38.356Z,48.99
2019-05-21T11:45:10.665Z,48.87
2019-05-21T11:47:40.953Z,48.65
2019-05-21T11:50:11.752Z,48.73
2019-05-21T11:52:42.179Z,48.63
2019-05-21T11:55:12.619Z,48.42
2019-05-21T11:57:47.619Z,48.29
2019-05-21T12:00:22.915Z,48.18
2019-05-21T12:03:04.057Z,48.07
2019-05-21T12:05:35.010Z,48.04
2019-05-21T12:08:07.289Z,47.81
2019-05-21T12:10:38.065Z,47.68
2019-05-21T12:13:08.434Z,47.55
2019-05-21T12:15:38.566Z,47.48
2019-05-21T12:18:08.922Z,47.33
2019-05-21T12:20:39.347Z,47.16
2019-05-21T12:23:09.659Z,47.07
2019-05-21T12:25:42.015Z,47.04
2019-05-21T12:28:14.310Z,46.82
2019-05-21T12:30:45.547Z,46.57
2019-05-21T12:33:15.850Z,46.49
2019-05-21T12:35:46.747Z,46.54
2019-05-21T12:38:17.106Z,46.44
2019-05-21T12:40:49.398Z,46.30
2019-05-21T12:43:20.900Z,46.18
2019-05-21T12:45:51.229Z,46.18
2019-05-21T12:48:21.593Z,45.79
2019-05-21T12:50:51.964Z,45.69
2019-05-21T12:53:22.749Z,45.60
2019-05-21T12:55:53.269Z,45.54
2019-05-21T12:58:23.641Z,45.17
2019-05-21T13:00:54.032Z,45.42
2019-05-21T13:03:25.269Z,45.29
2019-05-21T13:05:56.348Z,45.19
2019-05-21T13:08:26.711Z,45.08
2019-05-21T13:11:23.876Z,44.99
2019-05-21T13:14:02.784Z,44.94
2019-05-21T13:16:39.467Z,44.82
2019-05-21T13:19:11.425Z,44.72
2019-05-21T13:21:50.061Z,44.59
2019-05-21T13:24:29.517Z,44.50
2019-05-21T13:27:11.238Z,44.39
2019-05-21T13:30:07.440Z,44.39
2019-05-21T13:32:58.661Z,44.29
2019-05-21T13:35:49.588Z,44.36
2019-05-21T13:38:32.223Z,44.35
2019-05-21T13:41:05.621Z,44.53
2019-05-21T13:43:56.460Z,44.39
2019-05-21T13:46:28.545Z,44.30
2019-05-21T13:49:09.387Z,44.20
2019-05-21T13:51:48.516Z,44.11
2019-05-21T13:54:26.046Z,44.00
2019-05-21T13:57:01.420Z,44.01
2019-05-21T13:59:56.182Z,43.97
2019-05-21T14:02:30.935Z,44.41
2019-05-21T14:05:12.592Z,44.41
2019-05-21T14:07:50.424Z,43.93
2019-05-21T14:10:23.867Z,43.93
2019-05-21T14:12:59.962Z,43.89
2019-05-21T14:15:36.493Z,43.84
2019-05-21T14:18:23.468Z,43.71
2019-05-21T14:21:02.619Z,43.68
2019-05-21T14:26:25.850Z,43.51
2019-05-21T14:28:59.937Z,43.52
2019-05-21T14:31:30.278Z,43.47
2019-05-21T14:34:00.921Z,43.52
2019-05-21T14:36:31.511Z,43.39
2019-05-21T14:39:10.098Z,43.38
2019-05-21T14:41:54.008Z,43.26
2019-05-21T14:44:24.631Z,43.22
2019-05-21T14:46:55.593Z,43.18
2019-05-21T14:49:26.657Z,43.21
2019-05-21T14:51:57.005Z,43.19
2019-05-21T14:54:27.459Z,43.17
2019-05-21T14:57:01.007Z,43.05
2019-05-21T14:59:33.013Z,43.00
2019-05-21T15:02:03.422Z,42.97
2019-05-21T15:04:35.182Z,42.91
2019-05-21T15:07:09.111Z,42.89
2019-05-21T15:09:43.633Z,42.86
2019-05-21T15:12:14.589Z,42.78
2019-05-21T15:14:48.103Z,42.74
2019-05-21T15:17:18.595Z,42.71
2019-05-21T15:19:52.368Z,42.71
2019-05-21T15:22:40.438Z,42.67
2019-05-21T15:25:11.872Z,42.56
2019-05-21T15:27:42.331Z,42.46
2019-05-21T15:30:14.081Z,42.40
2019-05-21T15:32:44.447Z,42.35
2019-05-21T15:35:15.445Z,42.31
2019-05-21T15:37:46.028Z,42.27
2019-05-21T15:40:16.788Z,42.24
2019-05-21T15:42:54.949Z,42.18
2019-05-21T15:45:32.603Z,42.18
2019-05-21T15:48:04.589Z,42.23
2019-05-21T15:50:39.411Z,42.23
2019-05-21T15:53:09.727Z,42.27
2019-05-21T15:55:41.524Z,42.28
2019-05-21T15:58:11.920Z,42.30
2019-05-21T16:00:42.347Z,42.27
2019-05-21T16:03:14.991Z,42.27
2019-05-21T16:05:45.774Z,42.29
2019-05-21T16:08:18.479Z,42.26
2019-05-21T16:10:50.219Z,42.28
2019-05-21T16:13:20.897Z,42.32
2019-05-21T16:15:54.363Z,42.31
2019-05-21T16:18:25.015Z,42.31
2019-05-21T16:20:55.351Z,42.26
2019-05-21T16:23:27.148Z,42.26
2019-05-21T16:25:57.626Z,42.22
2019-05-21T16:28:29.677Z,42.25
2019-05-21T16:31:00.130Z,42.22
2019-05-21T16:33:30.533Z,42.22
2019-05-21T16:36:00.907Z,42.20
2019-05-21T16:38:31.670Z,42.21
2019-05-21T16:41:02.692Z,42.19
2019-05-21T16:43:35.906Z,42.18
2019-05-21T16:46:06.265Z,42.18
2019-05-21T16:48:36.997Z,42.17
2019-05-21T16:51:07.636Z,42.20
2019-05-21T16:53:37.989Z,42.18
2019-05-21T16:56:10.226Z,42.18
2019-05-21T16:58:40.528Z,42.18
2019-05-21T17:01:14.211Z,42.19
2019-05-21T17:03:59.068Z,42.20
2019-05-21T17:06:20.023Z,42.21
2019-05-21T17:08:52.601Z,42.18
2019-05-21T17:11:26.191Z,42.19
2019-05-21T17:14:00.440Z,42.19
2019-05-21T17:16:30.914Z,42.20
2019-05-21T17:19:02.112Z,42.22
2019-05-21T17:21:32.462Z,42.24
2019-05-21T17:24:02.827Z,42.23
2019-05-21T17:26:33.233Z,42.26
2019-05-21T17:29:03.579Z,42.27
2019-05-21T17:31:33.955Z,42.28
2019-05-21T17:34:05.588Z,42.29
2019-05-21T17:36:35.928Z,42.30
2019-05-21T17:39:08.123Z,42.34
2019-05-21T17:41:38.501Z,42.36
2019-05-21T17:44:08.817Z,42.39
2019-05-21T17:46:47.103Z,42.41
2019-05-21T17:49:17.465Z,42.43
2019-05-21T17:51:51.456Z,42.43
2019-05-21T17:54:24.866Z,42.46
2019-05-21T17:56:59.013Z,42.52
2019-05-21T17:59:29.491Z,42.54
2019-05-21T18:02:01.161Z,42.55
2019-05-21T18:04:31.684Z,42.58
2019-05-21T18:07:03.922Z,42.61
2019-05-21T18:09:35.892Z,42.64
2019-05-21T18:12:08.489Z,42.67
2019-05-21T18:14:39.091Z,42.70
2019-05-21T18:17:13.486Z,42.74
2019-05-21T18:19:46.256Z,42.76
2019-05-21T18:22:18.217Z,42.80
2019-05-21T18:24:51.390Z,42.79
2019-05-21T18:27:24.139Z,42.82
2019-05-21T18:29:54.430Z,42.86
2019-05-21T18:32:24.740Z,42.90
2019-05-21T18:34:55.083Z,42.92
2019-05-21T18:37:26.196Z,42.96
2019-05-21T18:39:58.622Z,42.98
2019-05-21T18:42:30.478Z,42.99
2019-05-21T18:45:01.897Z,43.03
2019-05-21T18:47:33.829Z,43.07
2019-05-21T18:50:04.857Z,43.10
2019-05-21T18:52:35.639Z,43.14
2019-05-21T18:55:06.350Z,43.18
2019-05-21T18:57:37.530Z,43.22
2019-05-21T19:00:08.769Z,43.24
2019-05-21T19:02:39.057Z,43.27
2019-05-21T19:05:09.712Z,43.31
2019-05-21T19:07:42.671Z,43.35
2019-05-21T19:10:15.793Z,43.38
2019-05-21T19:12:48.540Z,43.39
2019-05-21T19:15:21.697Z,43.45
2019-05-21T19:17:52.059Z,43.48
2019-05-21T19:20:23.996Z,43.51
2019-05-21T19:22:56.578Z,43.55
2019-05-21T19:25:32.891Z,43.59
2019-05-21T19:28:08.770Z,43.62
2019-05-21T19:30:41.435Z,43.66
2019-05-21T19:33:11.767Z,43.69
2019-05-21T19:35:42.253Z,43.74
2019-05-21T19:38:12.666Z,43.76
2019-05-21T19:40:45.262Z,43.80
2019-05-21T19:43:15.622Z,43.84
2019-05-21T19:45:46.728Z,43.90
2019-05-21T19:48:17.083Z,43.95
2019-05-21T19:50:49.492Z,43.99
2019-05-21T19:53:21.055Z,44.03
2019-05-21T19:55:51.496Z,44.07
2019-05-21T19:58:22.107Z,44.11
2019-05-21T20:00:54.872Z,44.17
2019-05-21T20:03:25.633Z,44.22
2019-05-21T20:05:56.306Z,44.27
2019-05-21T20:08:31.766Z,44.30
2019-05-21T20:11:02.550Z,44.36
2019-05-21T20:13:34.305Z,44.40
2019-05-21T20:16:05.912Z,44.45
2019-05-21T20:18:36.269Z,44.51
2019-05-21T20:21:08.819Z,44.57
2019-05-21T20:23:39.962Z,44.58
2019-05-21T20:26:18.530Z,44.63
2019-05-21T20:28:49.034Z,44.67
2019-05-21T20:31:20.922Z,44.72
2019-05-21T20:33:53.786Z,44.77
2019-05-21T20:36:24.194Z,44.84
2019-05-21T20:38:56.126Z,44.89
2019-05-21T20:41:26.551Z,44.96
2019-05-21T20:44:00.573Z,45.04
2019-05-21T20:46:32.578Z,45.11
2019-05-21T20:49:03.842Z,45.18
2019-05-21T20:51:34.714Z,45.28
2019-05-21T20:54:11.187Z,45.34
2019-05-21T20:56:41.956Z,45.44
2019-05-21T20:59:12.624Z,45.49
2019-05-21T21:01:43.429Z,45.59
2019-05-21T21:04:13.845Z,45.65
2019-05-21T21:06:45.245Z,45.72
2019-05-21T21:09:15.562Z,45.79
2019-05-21T21:11:46.685Z,45.86
2019-05-21T21:14:20.434Z,45.90
2019-05-21T21:16:50.607Z,45.97
2019-05-21T21:19:20.958Z,46.05
2019-05-21T21:21:52.373Z,46.14
2019-05-21T21:24:22.704Z,46.18
2019-05-21T21:26:53.426Z,46.25
2019-05-21T21:29:24.735Z,46.33
2019-05-21T21:31:55.138Z,46.43
2019-05-21T21:34:37.929Z,46.47
2019-05-21T21:37:09.034Z,46.54
2019-05-21T21:39:40.288Z,46.59
2019-05-21T21:42:11.146Z,46.65
2019-05-21T21:44:46.504Z,46.71
2019-05-21T21:47:18.215Z,46.78
2019-05-21T21:49:50.089Z,46.85
2019-05-21T21:52:20.575Z,46.92
2019-05-21T21:54:51.000Z,46.97
2019-05-21T21:57:21.352Z,47.02
2019-05-21T21:59:52.405Z,47.08
2019-05-21T22:02:32.496Z,47.17
2019-05-21T22:05:03.145Z,47.21
2019-05-21T22:07:35.427Z,47.28
2019-05-21T22:10:08.373Z,47.33
2019-05-21T22:12:38.951Z,47.40
2019-05-21T22:15:09.918Z,47.46
2019-05-21T22:17:41.312Z,47.54
2019-05-21T22:20:13.875Z,47.60
2019-05-21T22:22:49.848Z,47.68
2019-05-21T22:25:27.945Z,47.72
2019-05-21T22:28:02.084Z,47.80
2019-05-21T22:30:34.235Z,47.87
2019-05-21T22:33:04.630Z,47.94
2019-05-21T22:35:35.276Z,47.97
2019-05-21T22:38:07.610Z,48.06
2019-05-21T22:40:39.147Z,48.12
2019-05-21T22:43:09.925Z,48.20
2019-05-21T22:45:43.034Z,48.26
2019-05-21T22:48:13.909Z,48.33
2019-05-21T22:50:44.200Z,48.40
2019-05-21T22:53:16.780Z,48.44
2019-05-21T22:55:47.179Z,48.51
2019-05-21T22:58:17.599Z,48.58
2019-05-21T23:00:47.894Z,48.65
2019-05-21T23:03:18.258Z,48.72
2019-05-21T23:05:48.607Z,48.79
2019-05-21T23:08:19.603Z,48.84
2019-05-21T23:10:50.246Z,48.90
2019-05-21T23:13:24.431Z,49.00
2019-05-21T23:15:55.640Z,49.05
2019-05-21T23:18:26.034Z,49.10
2019-05-21T23:20:59.141Z,49.19
2019-05-21T23:23:31.318Z,49.26
2019-05-21T23:26:02.493Z,49.35
2019-05-21T23:28:34.548Z,49.40
2019-05-21T23:31:06.209Z,49.46
2019-05-21T23:33:37.649Z,49.54
2019-05-21T23:36:08.170Z,49.61
2019-05-21T23:38:39.247Z,49.69
2019-05-21T23:41:11.045Z,49.75
2019-05-21T23:43:41.374Z,49.82
2019-05-21T23:46:15.856Z,49.88
2019-05-21T23:48:46.593Z,49.94
2019-05-21T23:51:18.695Z,50.00
2019-05-21T23:53:49.351Z,50.07
2019-05-21T23:56:19.765Z,50.14
2019-05-21T23:58:51.143Z,50.22
